Love Boat — OT3861 — position and weather

sailwx.info

Track history (hours):
 
Tides and Currents Weather Stations Pressure Air Temp Water Temp Dewpoint Dewpoint Depression Visibility Wind Speed Wind Dir Waves Ship Positions

Love Boat

Last reported at 2014-Jul-19 01:05 UTC. Time now 2014-Jul-24 13:05 UTC.
Position N 50°55' E 006°59'.

Length 110 m; draft 3 m.

Type: Ship. MMSI: 205386190.

Date/timePositionNaut miles runAvg speedWind from/ knotsBaromVisibWave heightAir tempDewpointWater temp
2014-Jul-19 01:05N 50°55' E 006°59'18 3.3
2014-Jul-18 19:30N 51°11' E 006°46'3 3.1
2014-Jul-18 18:33N 51°14' E 006°44'2 2.0
2014-Jul-18 17:19N 51°16' E 006°42'33 3.3
2014-Jul-18 07:09N 51°46' E 006°20'3 4.8
2014-Jul-18 06:32N 51°49' E 006°17'21 4.7
2014-Jul-18 02:04N 51°53' E 005°44'3 6.2
2014-Jul-18 01:32N 51°54' E 005°39'6 6.0
2014-Jul-18 00:33N 51°53' E 005°29'6 5.5
2014-Jul-17 23:33N 51°50' E 005°23'5 4.7
2014-Jul-17 22:33N 51°49' E 005°15'6 6.0
2014-Jul-17 21:33N 51°50' E 005°06'6 5.6
2014-Jul-17 20:33N 51°50' E 004°57'6 6.3
2014-Jul-17 19:33N 51°48' E 004°47'7 7.3
2014-Jul-17 18:32N 51°43' E 004°38'13 6.1
2014-Jul-17 16:24N 51°39' E 004°18'5 6.4
2014-Jul-17 15:32N 51°35' E 004°13'8 7.6
2014-Jul-17 14:33N 51°27' E 004°14'5 4.8
2014-Jul-17 13:29N 51°22' E 004°17'3 3.4
2014-Jul-17 12:33N 51°20' E 004°19'0 0.0
2014-Jul-17 11:33N 51°20' E 004°19'0 0.0
2014-Jul-17 10:33N 51°20' E 004°19'0 0.0
2014-Jul-17 09:33N 51°20' E 004°19'0 0.3
2014-Jul-17 08:33N 51°20' E 004°19'0 0.0
2014-Jul-17 07:33N 51°20' E 004°19'2 1.6
2014-Jul-17 06:33N 51°18' E 004°20'0 0.0
2014-Jul-17 05:33N 51°18' E 004°20'1 1.2
2014-Jul-17 04:33N 51°19' E 004°19'0 0.0
2014-Jul-17 03:33N 51°19' E 004°19'0 0.0
2014-Jul-17 02:33N 51°19' E 004°19'0 0.0
2014-Jul-17 01:33N 51°19' E 004°19'0 0.0
2014-Jul-17 00:33N 51°19' E 004°19'0 0.0
2014-Jul-16 23:34N 51°19' E 004°19'0 0.0
2014-Jul-16 21:33N 51°19' E 004°19'0 0.0
2014-Jul-16 20:33N 51°19' E 004°19'0 0.0
2014-Jul-16 19:33N 51°19' E 004°19'0 0.0
2014-Jul-16 18:33N 51°19' E 004°19'2 1.8
2014-Jul-16 17:33N 51°21' E 004°17'1 1.2
2014-Jul-16 16:33N 51°21' E 004°15'9 8.7
2014-Jul-16 15:33N 51°25' E 004°03'8 7.8
2014-Jul-16 14:33N 51°21' E 003°52'2 2.0
2014-Jul-16 13:34N 51°20' E 003°49'0 0.0
2014-Jul-16 12:33N 51°20' E 003°49'0 0.0
2014-Jul-16 11:34N 51°20' E 003°49'0 0.0
2014-Jul-16 10:34N 51°20' E 003°49'0 0.0
2014-Jul-16 09:34N 51°20' E 003°49'0 0.0
2014-Jul-16 08:34N 51°20' E 003°49'0 0.0
2014-Jul-16 07:34N 51°20' E 003°49'0 0.0
2014-Jul-16 06:33N 51°20' E 003°49'0 0.0
2014-Jul-16 05:33N 51°20' E 003°49'0 0.0
2014-Jul-16 04:33N 51°20' E 003°49'0 0.0
2014-Jul-16 03:33N 51°20' E 003°49'0 0.0
2014-Jul-16 02:34N 51°20' E 003°49'0 0.0
2014-Jul-16 01:33N 51°20' E 003°49'0 0.0
2014-Jul-16 00:33N 51°20' E 003°49'0 0.0
2014-Jul-15 23:34N 51°20' E 003°49'0 0.0
2014-Jul-15 22:33N 51°20' E 003°49'0 0.0
2014-Jul-15 21:34N 51°20' E 003°49'0 0.0
2014-Jul-15 20:34N 51°20' E 003°49'0 0.0
2014-Jul-15 19:34N 51°20' E 003°49'0 0.0
2014-Jul-15 18:34N 51°20' E 003°49'0 0.0
2014-Jul-15 17:33N 51°20' E 003°49'0 0.0
2014-Jul-15 16:33N 51°20' E 003°49'0 0.0
2014-Jul-15 15:33N 51°20' E 003°49'0 0.0
2014-Jul-15 14:34N 51°20' E 003°49'0 0.0
2014-Jul-15 13:33N 51°20' E 003°49'0 0.0
2014-Jul-15 12:34N 51°20' E 003°49'0 0.0
2014-Jul-15 11:33N 51°20' E 003°49'0 0.0
2014-Jul-15 10:34N 51°20' E 003°49'0 0.0
2014-Jul-15 09:34N 51°20' E 003°49'0 0.0
2014-Jul-15 08:34N 51°20' E 003°49'0 0.0
2014-Jul-15 07:34N 51°20' E 003°49'0 0.0
2014-Jul-15 06:34N 51°20' E 003°49'0 0.0
2014-Jul-15 05:33N 51°20' E 003°49'0 0.0
2014-Jul-15 04:33N 51°20' E 003°49'0 0.0
2014-Jul-15 03:33N 51°20' E 003°49'0 0.0
2014-Jul-15 02:34N 51°20' E 003°49'0 0.0
2014-Jul-15 01:34N 51°20' E 003°49'0 0.0
2014-Jul-15 00:34N 51°20' E 003°49'0 0.0
2014-Jul-14 23:34N 51°20' E 003°49'0 0.0
2014-Jul-14 22:33N 51°20' E 003°49'0 0.0
2014-Jul-14 21:32N 51°20' E 003°49'0 0.0
2014-Jul-14 20:33N 51°20' E 003°49'0 0.0
2014-Jul-14 19:33N 51°20' E 003°49'0 0.0
2014-Jul-14 18:33N 51°20' E 003°49'0 0.0
2014-Jul-14 17:34N 51°20' E 003°49'1 0.2
2014-Jul-14 13:24N 51°19' E 003°50'0 0.1
2014-Jul-14 12:28N 51°19' E 003°50'0 0.0
2014-Jul-14 11:16N 51°19' E 003°50'0 0.0
2014-Jul-14 08:21N 51°19' E 003°50'0 0.2
2014-Jul-14 07:21N 51°19' E 003°50'1 0.5
2014-Jul-14 06:17N 51°18' E 003°50'0 0.0
2014-Jul-14 05:30N 51°18' E 003°50'0 0.0
2014-Jul-14 04:33N 51°18' E 003°50'0 0.0
2014-Jul-14 03:33N 51°18' E 003°50'0 0.0
2014-Jul-14 02:33N 51°18' E 003°50'0 0.0
2014-Jul-14 01:33N 51°18' E 003°50'0 0.0
2014-Jul-14 00:30N 51°18' E 003°50'0 0.0
2014-Jul-13 23:27N 51°18' E 003°50'0 0.0
2014-Jul-13 22:12N 51°18' E 003°50'0 0.0
2014-Jul-13 21:16N 51°18' E 003°50'0 0.0
2014-Jul-13 20:33N 51°18' E 003°50'0 0.0
2014-Jul-13 19:26N 51°18' E 003°50'0 0.0
2014-Jul-13 18:07N 51°18' E 003°50'0 0.0
2014-Jul-13 17:30N 51°18' E 003°50'0 0.0
2014-Jul-13 16:31N 51°18' E 003°50'0 0.0
2014-Jul-13 15:31N 51°18' E 003°50'0 0.0
2014-Jul-13 14:30N 51°18' E 003°50'0 0.0
2014-Jul-13 13:31N 51°18' E 003°50'0 0.0
2014-Jul-13 12:33N 51°18' E 003°50'0 0.0
2014-Jul-13 11:33N 51°18' E 003°50'0 0.0
2014-Jul-13 10:16N 51°18' E 003°50'0 0.0
2014-Jul-13 09:33N 51°18' E 003°50'0 0.0
2014-Jul-13 08:33N 51°18' E 003°50'1 0.8
2014-Jul-13 07:33N 51°19' E 003°50'2 1.8
2014-Jul-13 06:33N 51°21' E 003°50'8 8.0
2014-Jul-13 05:32N 51°26' E 003°60'1 0.8
2014-Jul-13 04:33N 51°27' E 004°01'0 0.0
2014-Jul-13 03:33N 51°27' E 004°01'0 0.0
2014-Jul-13 02:33N 51°27' E 004°01'0 0.0
2014-Jul-13 01:33N 51°27' E 004°01'0 0.0
2014-Jul-13 00:33N 51°27' E 004°01'0 0.0
2014-Jul-12 23:33N 51°27' E 004°01'0 0.0
2014-Jul-12 22:33N 51°27' E 004°01'0 0.0
2014-Jul-12 21:33N 51°27' E 004°01'0 0.0
2014-Jul-12 20:33N 51°27' E 004°01'0 0.0
2014-Jul-12 19:33N 51°27' E 004°01'0 0.0
2014-Jul-12 18:33N 51°27' E 004°01'2 1.6
2014-Jul-12 17:32N 51°29' E 004°00'5 4.9
2014-Jul-12 16:33N 51°33' E 003°59'10 4.4
2014-Jul-12 14:22N 51°40' E 004°10'6 6.3
2014-Jul-12 13:21N 51°40' E 004°20'9 4.7
2014-Jul-12 11:33N 51°42' E 004°33'6 5.7
2014-Jul-12 10:33N 51°44' E 004°42'6 5.7
2014-Jul-12 09:33N 51°48' E 004°48'6 6.0
2014-Jul-12 08:33N 51°50' E 004°58'7 6.9
2014-Jul-12 07:33N 51°49' E 005°09'7 7.0
2014-Jul-12 06:33N 51°49' E 005°20'7 6.9
2014-Jul-12 05:33N 51°53' E 005°28'9 7.7
2014-Jul-12 04:27N 51°54' E 005°42'55 3.5
2014-Jul-11 12:32N 51°15' E 006°45'4 4.3
2014-Jul-11 11:33N 51°11' E 006°48'127 4.5
2014-Jul-10 07:14N 49°23' E 008°30'4 6.6
2014-Jul-10 06:33N 49°18' E 008°29'9 8.6
2014-Jul-10 05:33N 49°11' E 008°23'9 9.5
2014-Jul-10 04:33N 49°02' E 008°18'10 9.4
2014-Jul-10 03:33N 48°54' E 008°09'4 4.4
2014-Jul-10 02:33N 48°50' E 008°07'0 0.0
2014-Jul-10 01:33N 48°50' E 008°07'0 0.0
2014-Jul-10 00:33N 48°50' E 008°07'0 0.0
2014-Jul-09 23:33N 48°50' E 008°07'0 0.0
2014-Jul-09 22:33N 48°50' E 008°07'0 0.0
2014-Jul-09 21:33N 48°50' E 008°07'0 0.0
2014-Jul-09 20:33N 48°50' E 008°07'0 0.0
2014-Jul-09 19:33N 48°50' E 008°07'3 1.6
2014-Jul-09 17:33N 48°47' E 008°04'7 6.7
2014-Jul-09 16:29N 48°42' E 007°57'  
Track history (hours):
 
Tides and Currents Weather Stations Pressure Air Temp Water Temp Dewpoint Dewpoint Depression Visibility Wind Speed Wind Dir Waves Ship Positions

Love Boat

Last reported at 2014-Jul-19 01:05 UTC. Time now 2014-Jul-24 13:05 UTC.
Position N 50°55' E 006°59'.

Length 110 m; draft 3 m.

Type: Ship. MMSI: 205386190.

Date/timePositionNaut miles runAvg speedWind from/ knotsBaromVisibWave heightAir tempDewpointWater temp
2014-Jul-19 01:05N 50°55' E 006°59'18 3.3
2014-Jul-18 19:30N 51°11' E 006°46'3 3.1
2014-Jul-18 18:33N 51°14' E 006°44'2 2.0
2014-Jul-18 17:19N 51°16' E 006°42'33 3.3
2014-Jul-18 07:09N 51°46' E 006°20'3 4.8
2014-Jul-18 06:32N 51°49' E 006°17'21 4.7
2014-Jul-18 02:04N 51°53' E 005°44'3 6.2
2014-Jul-18 01:32N 51°54' E 005°39'6 6.0
2014-Jul-18 00:33N 51°53' E 005°29'6 5.5
2014-Jul-17 23:33N 51°50' E 005°23'5 4.7
2014-Jul-17 22:33N 51°49' E 005°15'6 6.0
2014-Jul-17 21:33N 51°50' E 005°06'6 5.6
2014-Jul-17 20:33N 51°50' E 004°57'6 6.3
2014-Jul-17 19:33N 51°48' E 004°47'7 7.3
2014-Jul-17 18:32N 51°43' E 004°38'13 6.1
2014-Jul-17 16:24N 51°39' E 004°18'5 6.4
2014-Jul-17 15:32N 51°35' E 004°13'8 7.6
2014-Jul-17 14:33N 51°27' E 004°14'5 4.8
2014-Jul-17 13:29N 51°22' E 004°17'3 3.4
2014-Jul-17 12:33N 51°20' E 004°19'0 0.0
2014-Jul-17 11:33N 51°20' E 004°19'0 0.0
2014-Jul-17 10:33N 51°20' E 004°19'0 0.0
2014-Jul-17 09:33N 51°20' E 004°19'0 0.3
2014-Jul-17 08:33N 51°20' E 004°19'0 0.0
2014-Jul-17 07:33N 51°20' E 004°19'2 1.6
2014-Jul-17 06:33N 51°18' E 004°20'0 0.0
2014-Jul-17 05:33N 51°18' E 004°20'1 1.2
2014-Jul-17 04:33N 51°19' E 004°19'0 0.0
2014-Jul-17 03:33N 51°19' E 004°19'0 0.0
2014-Jul-17 02:33N 51°19' E 004°19'0 0.0
2014-Jul-17 01:33N 51°19' E 004°19'0 0.0
2014-Jul-17 00:33N 51°19' E 004°19'0 0.0
2014-Jul-16 23:34N 51°19' E 004°19'0 0.0
2014-Jul-16 21:33N 51°19' E 004°19'0 0.0
2014-Jul-16 20:33N 51°19' E 004°19'0 0.0
2014-Jul-16 19:33N 51°19' E 004°19'0 0.0
2014-Jul-16 18:33N 51°19' E 004°19'2 1.8
2014-Jul-16 17:33N 51°21' E 004°17'1 1.2
2014-Jul-16 16:33N 51°21' E 004°15'9 8.7
2014-Jul-16 15:33N 51°25' E 004°03'8 7.8
2014-Jul-16 14:33N 51°21' E 003°52'2 2.0
2014-Jul-16 13:34N 51°20' E 003°49'0 0.0
2014-Jul-16 12:33N 51°20' E 003°49'0 0.0
2014-Jul-16 11:34N 51°20' E 003°49'0 0.0
2014-Jul-16 10:34N 51°20' E 003°49'0 0.0
2014-Jul-16 09:34N 51°20' E 003°49'0 0.0
2014-Jul-16 08:34N 51°20' E 003°49'0 0.0
2014-Jul-16 07:34N 51°20' E 003°49'0 0.0
2014-Jul-16 06:33N 51°20' E 003°49'0 0.0
2014-Jul-16 05:33N 51°20' E 003°49'0 0.0
2014-Jul-16 04:33N 51°20' E 003°49'0 0.0
2014-Jul-16 03:33N 51°20' E 003°49'0 0.0
2014-Jul-16 02:34N 51°20' E 003°49'0 0.0
2014-Jul-16 01:33N 51°20' E 003°49'0 0.0
2014-Jul-16 00:33N 51°20' E 003°49'0 0.0
2014-Jul-15 23:34N 51°20' E 003°49'0 0.0
2014-Jul-15 22:33N 51°20' E 003°49'0 0.0
2014-Jul-15 21:34N 51°20' E 003°49'0 0.0
2014-Jul-15 20:34N 51°20' E 003°49'0 0.0
2014-Jul-15 19:34N 51°20' E 003°49'0 0.0
2014-Jul-15 18:34N 51°20' E 003°49'0 0.0
2014-Jul-15 17:33N 51°20' E 003°49'0 0.0
2014-Jul-15 16:33N 51°20' E 003°49'0 0.0
2014-Jul-15 15:33N 51°20' E 003°49'0 0.0
2014-Jul-15 14:34N 51°20' E 003°49'0 0.0
2014-Jul-15 13:33N 51°20' E 003°49'0 0.0
2014-Jul-15 12:34N 51°20' E 003°49'0 0.0
2014-Jul-15 11:33N 51°20' E 003°49'0 0.0
2014-Jul-15 10:34N 51°20' E 003°49'0 0.0
2014-Jul-15 09:34N 51°20' E 003°49'0 0.0
2014-Jul-15 08:34N 51°20' E 003°49'0 0.0
2014-Jul-15 07:34N 51°20' E 003°49'0 0.0
2014-Jul-15 06:34N 51°20' E 003°49'0 0.0
2014-Jul-15 05:33N 51°20' E 003°49'0 0.0
2014-Jul-15 04:33N 51°20' E 003°49'0 0.0
2014-Jul-15 03:33N 51°20' E 003°49'0 0.0
2014-Jul-15 02:34N 51°20' E 003°49'0 0.0
2014-Jul-15 01:34N 51°20' E 003°49'0 0.0
2014-Jul-15 00:34N 51°20' E 003°49'0 0.0
2014-Jul-14 23:34N 51°20' E 003°49'0 0.0
2014-Jul-14 22:33N 51°20' E 003°49'0 0.0
2014-Jul-14 21:32N 51°20' E 003°49'0 0.0
2014-Jul-14 20:33N 51°20' E 003°49'0 0.0
2014-Jul-14 19:33N 51°20' E 003°49'0 0.0
2014-Jul-14 18:33N 51°20' E 003°49'0 0.0
2014-Jul-14 17:34N 51°20' E 003°49'1 0.2
2014-Jul-14 13:24N 51°19' E 003°50'0 0.1
2014-Jul-14 12:28N 51°19' E 003°50'0 0.0
2014-Jul-14 11:16N 51°19' E 003°50'0 0.0
2014-Jul-14 08:21N 51°19' E 003°50'0 0.2
2014-Jul-14 07:21N 51°19' E 003°50'1 0.5
2014-Jul-14 06:17N 51°18' E 003°50'0 0.0
2014-Jul-14 05:30N 51°18' E 003°50'0 0.0
2014-Jul-14 04:33N 51°18' E 003°50'0 0.0
2014-Jul-14 03:33N 51°18' E 003°50'0 0.0
2014-Jul-14 02:33N 51°18' E 003°50'0 0.0
2014-Jul-14 01:33N 51°18' E 003°50'0 0.0
2014-Jul-14 00:30N 51°18' E 003°50'0 0.0
2014-Jul-13 23:27N 51°18' E 003°50'0 0.0
2014-Jul-13 22:12N 51°18' E 003°50'0 0.0
2014-Jul-13 21:16N 51°18' E 003°50'0 0.0
2014-Jul-13 20:33N 51°18' E 003°50'0 0.0
2014-Jul-13 19:26N 51°18' E 003°50'0 0.0
2014-Jul-13 18:07N 51°18' E 003°50'0 0.0
2014-Jul-13 17:30N 51°18' E 003°50'0 0.0
2014-Jul-13 16:31N 51°18' E 003°50'0 0.0
2014-Jul-13 15:31N 51°18' E 003°50'0 0.0
2014-Jul-13 14:30N 51°18' E 003°50'0 0.0
2014-Jul-13 13:31N 51°18' E 003°50'0 0.0
2014-Jul-13 12:33N 51°18' E 003°50'0 0.0
2014-Jul-13 11:33N 51°18' E 003°50'0 0.0
2014-Jul-13 10:16N 51°18' E 003°50'0 0.0
2014-Jul-13 09:33N 51°18' E 003°50'0 0.0
2014-Jul-13 08:33N 51°18' E 003°50'1 0.8
2014-Jul-13 07:33N 51°19' E 003°50'2 1.8
2014-Jul-13 06:33N 51°21' E 003°50'8 8.0
2014-Jul-13 05:32N 51°26' E 003°60'1 0.8
2014-Jul-13 04:33N 51°27' E 004°01'0 0.0
2014-Jul-13 03:33N 51°27' E 004°01'0 0.0
2014-Jul-13 02:33N 51°27' E 004°01'0 0.0
2014-Jul-13 01:33N 51°27' E 004°01'0 0.0
2014-Jul-13 00:33N 51°27' E 004°01'0 0.0
2014-Jul-12 23:33N 51°27' E 004°01'0 0.0
2014-Jul-12 22:33N 51°27' E 004°01'0 0.0
2014-Jul-12 21:33N 51°27' E 004°01'0 0.0
2014-Jul-12 20:33N 51°27' E 004°01'0 0.0
2014-Jul-12 19:33N 51°27' E 004°01'0 0.0
2014-Jul-12 18:33N 51°27' E 004°01'2 1.6
2014-Jul-12 17:32N 51°29' E 004°00'5 4.9
2014-Jul-12 16:33N 51°33' E 003°59'10 4.4
2014-Jul-12 14:22N 51°40' E 004°10'6 6.3
2014-Jul-12 13:21N 51°40' E 004°20'9 4.7
2014-Jul-12 11:33N 51°42' E 004°33'6 5.7
2014-Jul-12 10:33N 51°44' E 004°42'6 5.7
2014-Jul-12 09:33N 51°48' E 004°48'6 6.0
2014-Jul-12 08:33N 51°50' E 004°58'7 6.9
2014-Jul-12 07:33N 51°49' E 005°09'7 7.0
2014-Jul-12 06:33N 51°49' E 005°20'7 6.9
2014-Jul-12 05:33N 51°53' E 005°28'9 7.7
2014-Jul-12 04:27N 51°54' E 005°42'55 3.5
2014-Jul-11 12:32N 51°15' E 006°45'4 4.3
2014-Jul-11 11:33N 51°11' E 006°48'127 4.5
2014-Jul-10 07:14N 49°23' E 008°30'4 6.6
2014-Jul-10 06:33N 49°18' E 008°29'9 8.6
2014-Jul-10 05:33N 49°11' E 008°23'9 9.5
2014-Jul-10 04:33N 49°02' E 008°18'10 9.4
2014-Jul-10 03:33N 48°54' E 008°09'4 4.4
2014-Jul-10 02:33N 48°50' E 008°07'0 0.0
2014-Jul-10 01:33N 48°50' E 008°07'0 0.0
2014-Jul-10 00:33N 48°50' E 008°07'0 0.0
2014-Jul-09 23:33N 48°50' E 008°07'0 0.0
2014-Jul-09 22:33N 48°50' E 008°07'0 0.0
2014-Jul-09 21:33N 48°50' E 008°07'0 0.0
2014-Jul-09 20:33N 48°50' E 008°07'0 0.0
2014-Jul-09 19:33N 48°50' E 008°07'3 1.6
2014-Jul-09 17:33N 48°47' E 008°04'7 6.7
2014-Jul-09 16:29N 48°42' E 007°57'  

Dump ship's entire track history